Time;durP1;ratioP1;P1;durP2;ratioP2;P2;SDS_P1;SDS_P2;PMS_P1;PMS_P2;Temp;Humidity;BMP_temperature;BMP_pressure;BME280_temperature;BME280_humidity;BME280_pressure;Samples;Min_cycle;Max_cycle;Signal;HPM_P1;HPM_P2
2023/10/17 00:00:31;;;;;;;;;;;;;;;;;;6176288;23;19931;-83
2023/10/17 00:03:15;;;;;;;;;;;;;;;;;;6148404;23;20857;-83
2023/10/17 00:05:41;;;;;;;;;;;;;;;;;;6171923;23;19974;-83
2023/10/17 00:08:17;;;;;;;;;;;;;;;;;;6152354;23;19970;-83
2023/10/17 00:10:46;;;;;;;;;;;;;;;;;;6148608;23;19989;-83
2023/10/17 00:13:38;;;;;;;;;;;;;;;;;;6150440;23;19971;-84
2023/10/17 00:16:12;;;;;;;;;;;;;;;;;;6152015;23;19931;-84
2023/10/17 00:21:46;;;;;;;;;;;;;;;;;;6149819;23;19974;-83
2023/10/17 00:24:31;;;;;;;;;;;;;;;;;;;;;
2023/10/17 00:26:57;;;;;;;;;;;;;;;;;;6172492;23;19924;-83
2023/10/17 00:29:40;;;;;;;;;;;;;;;;;;6151919;23;19920;-83
2023/10/17 00:32:12;;;;;;;;;;;;;;;;;;6168789;23;19924;-83
2023/10/17 00:35:02;;;;;;;;;;;;;;;;;;6170031;23;19955;-83
2023/10/17 00:37:31;;;;;;;;;;;;;;;;;;6179338;23;19929;-83
2023/10/17 00:43:16;;;;;;;;;;;;;;;;;;6203425;23;20239;-83
2023/10/17 00:48:41;;;;;;;;;;;;;;;;;;6206658;23;20257;-83
2023/10/17 00:51:08;;;;;;;;;;;;;;;;;;6180101;23;20291;-83
2023/10/17 00:53:34;;;;;;;;;;;;;;;;;;6181062;23;19922;-83
2023/10/17 00:56:06;;;;;;;;;;;;;;;;;;6181833;23;20059;-83
2023/10/17 01:02:06;;;;;;;;;;;;;;;;;;6159570;23;20372;-83
2023/10/17 01:04:40;;;;;;;;;;;;;;;;;;6179740;23;19927;-83
2023/10/17 01:07:06;;;;;;;;;;;;;;;;;;6205563;23;19919;-84
2023/10/17 01:09:47;;;;;;;;;;;;;;;;;;6206839;23;20380;-83
2023/10/17 01:12:13;;;;;;;;;;;;;;;;;;6180365;23;19968;-84
2023/10/17 01:14:40;;;;;;;;;;;;;;;;;;6204004;23;19977;-83
2023/10/17 01:22:35;;;;;;;;;;;;;;;;;;;;;
2023/10/17 01:25:18;;;;;;;;;;;;;;;;;;6174211;23;20295;-82
2023/10/17 01:27:46;;;;;;;;;;;;;;;;;;6149094;23;20306;-82
2023/10/17 01:33:08;;;;;;;;;;;;;;;;;;6174828;23;19990;-86
2023/10/17 01:35:33;;;;;;;;;;;;;;;;;;6150858;23;19924;-86
2023/10/17 01:37:59;;;;;;;;;;;;;;;;;;6149844;23;19962;-86
2023/10/17 01:40:27;;;;;;;;;;;;;;;;;;6150528;23;19916;-86
2023/10/17 01:42:52;;;;;;;;;;;;;;;;;;6150197;23;20348;-86
2023/10/17 01:45:25;;;;;;;;;;;;;;;;;;6153199;23;19920;-86
2023/10/17 01:47:54;;;;;;;;;;;;;;;;;;6148916;23;19924;-86
2023/10/17 01:50:20;;;;;;;;;;;;;;;;;;6178662;23;19930;-87
2023/10/17 01:52:46;;;;;;;;;;;;;;;;;;6175403;23;19998;-87
2023/10/17 01:55:35;;;;;;;;;;;;;;;;;;6188623;23;20244;-86
2023/10/17 01:58:07;;;;;;;;;;;;;;;;;;6151380;23;19966;-86
2023/10/17 02:03:12;;;;;;;;;;;;;;;;;;6176035;23;19920;-86
2023/10/17 02:05:41;;;;;;;;;;;;;;;;;;6149785;23;19963;-87
2023/10/17 02:08:08;;;;;;;;;;;;;;;;;;6177829;23;19920;-86
2023/10/17 02:10:34;;;;;;;;;;;;;;;;;;6177907;23;19919;-86
2023/10/17 02:13:00;;;;;;;;;;;;;;;;;;6175808;23;19916;-86
2023/10/17 02:15:26;;;;;;;;;;;;;;;;;;6177454;23;19923;-86
2023/10/17 02:17:52;;;;;;;;;;;;;;;;;;6150750;23;19943;-86
2023/10/17 02:22:53;;;;;;;;;;;;;;;;;;6173532;23;19924;-86
2023/10/17 02:25:41;;;;;;;;;;;;;;;;;;6178106;23;19990;-86
2023/10/17 02:28:07;;;;;;;;;;;;;;;;;;6176332;23;20215;-86
2023/10/17 02:30:33;;;;;;;;;;;;;;;;;;6176916;23;19999;-86
2023/10/17 02:33:10;;;;;;;;;;;;;;;;;;6174195;23;19923;-86
2023/10/17 02:35:41;;;;;;;;;;;;;;;;;;6175909;23;19924;-86
2023/10/17 02:38:08;;;;;;;;;;;;;;;;;;6178523;23;20322;-86
2023/10/17 02:40:34;;;;;;;;;;;;;;;;;;6178920;23;20007;-86
2023/10/17 02:43:03;;;;;;;;;;;;;;;;;;6172312;23;19994;-86
2023/10/17 02:46:04;;;;;;;;;;;;;;;;;;6172643;23;19916;-86
2023/10/17 02:48:51;;;;;;;;;;;;;;;;;;6172840;23;19920;-85
2023/10/17 02:54:27;;;;;;;;;;;;;;;;;;6212169;23;19920;-86
2023/10/17 02:56:53;;;;;;;;;;;;;;;;;;6173840;23;20336;-86
2023/10/17 02:59:21;;;;;;;;;;;;;;;;;;6174946;23;19915;-86
2023/10/17 03:01:53;;;;;;;;;;;;;;;;;;6147931;23;19920;-87
2023/10/17 03:04:26;;;;;;;;;;;;;;;;;;6176518;23;19916;-86
2023/10/17 03:06:54;;;;;;;;;;;;;;;;;;6175324;23;19920;-86
2023/10/17 03:12:06;;;;;;;;;;;;;;;;;;6177080;23;19994;-86
2023/10/17 03:17:32;;;;;;;;;;;;;;;;;;6177168;23;20288;-86
2023/10/17 03:19:58;;;;;;;;;;;;;;;;;;6178510;23;19929;-86
2023/10/17 03:22:24;;;;;;;;;;;;;;;;;;6178847;23;20313;-86
2023/10/17 03:25:01;;;;;;;;;;;;;;;;;;6182767;23;19920;-86
2023/10/17 03:27:37;;;;;;;;;;;;;;;;;;6205312;23;19926;-86
2023/10/17 03:30:08;;;;;;;;;;;;;;;;;;6181144;23;19927;-86
2023/10/17 03:32:34;;;;;;;;;;;;;;;;;;6206269;23;19919;-86
2023/10/17 03:35:02;;;;;;;;;;;;;;;;;;6181051;23;19920;-86
2023/10/17 03:37:28;;;;;;;;;;;;;;;;;;6205265;23;19962;-86
2023/10/17 03:39:54;;;;;;;;;;;;;;;;;;6181454;23;19915;-86
2023/10/17 03:45:12;;;;;;;;;;;;;;;;;;6205457;23;19919;-86
2023/10/17 03:47:38;;;;;;;;;;;;;;;;;;6203305;23;19926;-86
2023/10/17 03:50:23;;;;;;;;;;;;;;;;;;6206383;23;19919;-86
2023/10/17 03:52:48;;;;;;;;;;;;;;;;;;6205042;23;19923;-86
2023/10/17 03:55:21;;;;;;;;;;;;;;;;;;6205654;23;19920;-86
2023/10/17 03:57:52;;;;;;;;;;;;;;;;;;6180178;23;20009;-86
2023/10/17 04:03:08;;;;;;;;;;;;;;;;;;6203171;23;20352;-86
2023/10/17 04:05:34;;;;;;;;;;;;;;;;;;6181421;23;19924;-86
2023/10/17 04:08:00;;;;;;;;;;;;;;;;;;6202314;23;20004;-86
2023/10/17 04:10:36;;;;;;;;;;;;;;;;;;6180343;23;19920;-86
2023/10/17 04:13:38;;;;;;;;;;;;;;;;;;6179494;23;19924;-86
2023/10/17 04:16:34;;;;;;;;;;;;;;;;;;6181906;23;20319;-86
2023/10/17 04:19:07;;;;;;;;;;;;;;;;;;6180214;23;20220;-86
2023/10/17 04:21:45;;;;;;;;;;;;;;;;;;6181311;23;19927;-87
2023/10/17 04:24:13;;;;;;;;;;;;;;;;;;6205849;23;19930;-87
2023/10/17 04:26:45;;;;;;;;;;;;;;;;;;6203600;23;19919;-86
2023/10/17 04:29:11;;;;;;;;;;;;;;;;;;6206269;23;19951;-86
2023/10/17 04:31:37;;;;;;;;;;;;;;;;;;6204575;23;19919;-86
2023/10/17 04:37:05;;;;;;;;;;;;;;;;;;6207082;23;20244;-86
2023/10/17 04:49:52;;;;;;;;;;;;;;;;;;6203658;23;20010;-86
2023/10/17 04:52:28;;;;;;;;;;;;;;;;;;6180726;23;20017;-86
2023/10/17 04:57:59;;;;;;;;;;;;;;;;;;6189523;23;20331;-87
2023/10/17 05:01:01;;;;;;;;;;;;;;;;;;6178629;23;20240;-86
2023/10/17 05:03:32;;;;;;;;;;;;;;;;;;6179085;23;19961;-86
2023/10/17 05:06:15;;;;;;;;;;;;;;;;;;6203119;23;19920;-86
2023/10/17 06:38:51;;;;;;;;;;;;;;;;;;6163255;23;19927;-86
2023/10/17 06:44:26;;;;;;;;;;;;;;;;;;6181331;23;19994;-86
2023/10/17 06:54:40;;;;;;;;;;;;;;;;;;6176363;23;19993;-86
2023/10/17 06:57:18;;;;;;;;;;;;;;;;;;6153788;23;19924;-86
2023/10/17 06:59:44;;;;;;;;;;;;;;;;;;6179743;23;20172;-86
2023/10/17 07:02:18;;;;;;;;;;;;;;;;;;6155539;23;19920;-86
2023/10/17 07:04:52;;;;;;;;;;;;;;;;;;6153512;23;19923;-86
2023/10/17 07:07:22;;;;;;;;;;;;;;;;;;6180047;23;19919;-86
2023/10/17 07:10:16;;;;;;;;;;;;;;;;;;6153879;23;19937;-86
2023/10/17 07:12:38;;;;;;;;;;;;;;;;;;6177339;23;19920;-86
2023/10/17 07:15:12;;;;;;;;;;;;;;;;;;6178963;23;19930;-86
2023/10/17 07:17:49;;;;;;;;;;;;;;;;;;6152503;23;19928;-86
2023/10/17 07:23:27;;;;;;;;;;;;;;;;;;6141214;23;19927;-86
2023/10/17 07:25:56;;;;;;;;;;;;;;;;;;6147413;23;19952;-86
2023/10/17 07:28:42;;;;;;;;;;;;;;;;;;6149718;23;19920;-86
2023/10/17 07:31:10;;;;;;;;;;;;;;;;;;6149892;23;19920;-86
2023/10/17 07:33:36;;;;;;;;;;;;;;;;;;6175619;23;19943;-86
2023/10/17 07:39:15;;;;;;;;;;;;;;;;;;6176844;22;19947;-88
2023/10/17 07:41:51;;;;;;;;;;;;;;;;;;6147828;23;20020;-87
2023/10/17 07:44:21;;;;;;;;;;;;;;;;;;6150656;23;19920;-88
2023/10/17 07:46:48;;;;;;;;;;;;;;;;;;6148083;23;19920;-87
2023/10/17 07:49:16;;;;;;;;;;;;;;;;;;6150337;23;19927;-85
2023/10/17 07:51:42;;;;;;;;;;;;;;;;;;6147444;23;20075;-85
2023/10/17 07:54:08;;;;;;;;;;;;;;;;;;6150707;23;19971;-87
2023/10/17 07:56:34;;;;;;;;;;;;;;;;;;6150352;23;19932;-88
2023/10/17 07:59:08;;;;;;;;;;;;;;;;;;6122898;23;19919;-88
2023/10/17 08:01:45;;;;;;;;;;;;;;;;;;6150324;23;19924;-88
2023/10/17 08:06:43;;;;;;;;;;;;;;;;;;6147964;23;19920;-88
2023/10/17 08:11:51;;;;;;;;;;;;;;;;;;6174374;23;19939;-88
2023/10/17 08:14:18;;;;;;;;;;;;;;;;;;6150826;23;19923;-88
2023/10/17 08:16:44;;;;;;;;;;;;;;;;;;6147270;23;19975;-87
2023/10/17 08:19:13;;;;;;;;;;;;;;;;;;6178020;23;19927;-88
2023/10/17 08:21:49;;;;;;;;;;;;;;;;;;6205255;23;19942;-88
2023/10/17 08:24:15;;;;;;;;;;;;;;;;;;6155203;23;19920;-88
2023/10/17 08:26:42;;;;;;;;;;;;;;;;;;6177195;23;19927;-88
2023/10/17 08:29:08;;;;;;;;;;;;;;;;;;6179426;23;20135;-88
2023/10/17 08:31:52;;;;;;;;;;;;;;;;;;6179897;23;20389;-88
2023/10/17 08:34:18;;;;;;;;;;;;;;;;;;6180071;23;19928;-86
2023/10/17 08:36:47;;;;;;;;;;;;;;;;;;6150867;23;19920;-87
2023/10/17 08:42:14;;;;;;;;;;;;;;;;;;6155220;23;19926;-86
2023/10/17 08:44:41;;;;;;;;;;;;;;;;;;6177545;23;20356;-86
2023/10/17 08:47:07;;;;;;;;;;;;;;;;;;6179738;23;20264;-86
2023/10/17 08:49:33;;;;;;;;;;;;;;;;;;6206962;23;19920;-86
2023/10/17 08:51:59;;;;;;;;;;;;;;;;;;6174835;23;20414;-86
2023/10/17 08:54:28;;;;;;;;;;;;;;;;;;6178553;23;19924;-86
2023/10/17 08:56:54;;;;;;;;;;;;;;;;;;6176410;23;20408;-86
2023/10/17 09:02:28;;;;;;;;;;;;;;;;;;6205730;23;19919;-88
2023/10/17 09:04:54;;;;;;;;;;;;;;;;;;6152393;23;19916;-86
2023/10/17 09:07:31;;;;;;;;;;;;;;;;;;6206608;23;19926;-86
2023/10/17 09:10:02;;;;;;;;;;;;;;;;;;6177907;23;19920;-86
2023/10/17 09:12:29;;;;;;;;;;;;;;;;;;6205195;23;20268;-86
2023/10/17 09:14:59;;;;;;;;;;;;;;;;;;6177864;23;19923;-86
2023/10/17 09:19:53;;;;;;;;;;;;;;;;;;6204716;23;20317;-86
2023/10/17 09:22:20;;;;;;;;;;;;;;;;;;6206519;23;20561;-86
2023/10/17 09:24:48;;;;;;;;;;;;;;;;;;6204500;23;19923;-87
2023/10/17 09:27:14;;;;;;;;;;;;;;;;;;6206162;23;19947;-88
2023/10/17 09:29:40;;;;;;;;;;;;;;;;;;6203994;23;19943;-87
2023/10/17 09:32:06;;;;;;;;;;;;;;;;;;6179245;23;19967;-88
2023/10/17 09:34:32;;;;;;;;;;;;;;;;;;6154188;23;20288;-87
2023/10/17 09:37:03;;;;;;;;;;;;;;;;;;6150207;23;19927;-87
2023/10/17 09:39:29;;;;;;;;;;;;;;;;;;6179738;23;19924;-87
2023/10/17 09:41:56;;;;;;;;;;;;;;;;;;6177191;23;20822;-87
2023/10/17 09:44:22;;;;;;;;;;;;;;;;;;6186345;23;19916;-87
2023/10/17 09:46:50;;;;;;;;;;;;;;;;;;6213844;23;19931;-87
2023/10/17 09:49:15;;;;;;;;;;;;;;;;;;6191809;23;19915;-88
2023/10/17 09:51:42;;;;;;;;;;;;;;;;;;6183700;23;19923;-87
2023/10/17 09:54:08;;;;;;;;;;;;;;;;;;6156738;23;19951;-87
2023/10/17 09:56:34;;;;;;;;;;;;;;;;;;6179080;23;19923;-87
2023/10/17 09:59:02;;;;;;;;;;;;;;;;;;6178298;23;20024;-87
2023/10/17 10:01:31;;;;;;;;;;;;;;;;;;6178459;23;19994;-87
2023/10/17 10:03:57;;;;;;;;;;;;;;;;;;6203586;23;19919;-87
2023/10/17 10:06:23;;;;;;;;;;;;;;;;;;6181493;23;19982;-87
2023/10/17 10:08:49;;;;;;;;;;;;;;;;;;6206475;23;19987;-86
2023/10/17 10:11:15;;;;;;;;;;;;;;;;;;6180787;23;20364;-87
2023/10/17 10:13:41;;;;;;;;;;;;;;;;;;6205823;23;19938;-87
2023/10/17 10:16:08;;;;;;;;;;;;;;;;;;6155930;23;19920;-87
2023/10/17 10:18:41;;;;;;;;;;;;;;;;;;6207528;23;19924;-87
2023/10/17 10:21:12;;;;;;;;;;;;;;;;;;6207670;23;19919;-87
2023/10/17 10:23:41;;;;;;;;;;;;;;;;;;6152991;23;19916;-87
2023/10/17 10:26:12;;;;;;;;;;;;;;;;;;6143750;23;20386;-87
2023/10/17 10:28:38;;;;;;;;;;;;;;;;;;6204472;23;19987;-87
2023/10/17 10:31:03;;;;;;;;;;;;;;;;;;6180469;23;20446;-87
2023/10/17 10:33:31;;;;;;;;;;;;;;;;;;6155993;23;19926;-87
2023/10/17 10:35:57;;;;;;;;;;;;;;;;;;6179469;23;20356;-87
2023/10/17 10:38:27;;;;;;;;;;;;;;;;;;6206259;23;19920;-87
2023/10/17 10:40:53;;;;;;;;;;;;;;;;;;6204287;23;19970;-87
2023/10/17 10:43:19;;;;;;;;;;;;;;;;;;6207668;23;20396;-87
2023/10/17 10:45:50;;;;;;;;;;;;;;;;;;6178923;23;20355;-87
2023/10/17 10:48:17;;;;;;;;;;;;;;;;;;6207534;23;19927;-87
2023/10/17 10:50:43;;;;;;;;;;;;;;;;;;6178014;23;19916;-86
2023/10/17 10:53:11;;;;;;;;;;;;;;;;;;6204912;23;19987;-87
2023/10/17 10:55:37;;;;;;;;;;;;;;;;;;6177205;23;19924;-87
2023/10/17 10:58:03;;;;;;;;;;;;;;;;;;6154357;23;20316;-87
2023/10/17 11:00:29;;;;;;;;;;;;;;;;;;6205142;23;19923;-86
2023/10/17 11:02:56;;;;;;;;;;;;;;;;;;6175601;23;19931;-87
2023/10/17 11:05:23;;;;;;;;;;;;;;;;;;6153790;23;20349;-86
2023/10/17 11:07:49;;;;;;;;;;;;;;;;;;6177523;23;20342;-87
2023/10/17 11:10:18;;;;;;;;;;;;;;;;;;6180616;23;19947;-87
2023/10/17 11:12:44;;;;;;;;;;;;;;;;;;6177167;23;19920;-87
2023/10/17 11:15:11;;;;;;;;;;;;;;;;;;6206707;23;19923;-87
2023/10/17 11:17:37;;;;;;;;;;;;;;;;;;6176937;23;20337;-87
2023/10/17 11:20:12;;;;;;;;;;;;;;;;;;6180779;23;19974;-86
2023/10/17 11:22:40;;;;;;;;;;;;;;;;;;6204715;23;19920;-87
2023/10/17 11:25:07;;;;;;;;;;;;;;;;;;6207926;23;19920;-87
2023/10/17 11:27:33;;;;;;;;;;;;;;;;;;6179967;23;19916;-87
2023/10/17 11:29:59;;;;;;;;;;;;;;;;;;6205160;23;20046;-87
2023/10/17 11:32:26;;;;;;;;;;;;;;;;;;6206278;23;20077;-87
2023/10/17 11:34:52;;;;;;;;;;;;;;;;;;6177502;23;20333;-87
2023/10/17 11:37:24;;;;;;;;;;;;;;;;;;6154510;23;20002;-86
2023/10/17 11:39:51;;;;;;;;;;;;;;;;;;6177069;23;19923;-87
2023/10/17 11:42:17;;;;;;;;;;;;;;;;;;6205690;23;19926;-87
2023/10/17 11:44:46;;;;;;;;;;;;;;;;;;6205601;23;19983;-87
2023/10/17 11:47:19;;;;;;;;;;;;;;;;;;6206998;23;19954;-87
2023/10/17 11:49:47;;;;;;;;;;;;;;;;;;6203644;23;19919;-87
2023/10/17 11:52:13;;;;;;;;;;;;;;;;;;6206837;23;19916;-87
2023/10/17 11:54:39;;;;;;;;;;;;;;;;;;6204561;23;19920;-87
2023/10/17 11:57:05;;;;;;;;;;;;;;;;;;6205687;23;19932;-87
2023/10/17 11:59:32;;;;;;;;;;;;;;;;;;6153453;23;20474;-87
2023/10/17 12:02:02;;;;;;;;;;;;;;;;;;6152116;23;19951;-87
2023/10/17 12:04:28;;;;;;;;;;;;;;;;;;6180178;23;19927;-87
2023/10/17 12:06:54;;;;;;;;;;;;;;;;;;6202781;23;19927;-87
2023/10/17 12:09:23;;;;;;;;;;;;;;;;;;6179709;23;19924;-87
2023/10/17 12:11:49;;;;;;;;;;;;;;;;;;6203760;23;20369;-87
2023/10/17 12:14:24;;;;;;;;;;;;;;;;;;6204023;23;19920;-87
2023/10/17 12:16:53;;;;;;;;;;;;;;;;;;6203885;23;19924;-87
2023/10/17 12:19:19;;;;;;;;;;;;;;;;;;6205849;23;19925;-87
2023/10/17 12:21:47;;;;;;;;;;;;;;;;;;6177004;23;20092;-87
2023/10/17 12:24:13;;;;;;;;;;;;;;;;;;6153397;23;20274;-87
2023/10/17 12:26:39;;;;;;;;;;;;;;;;;;6175286;23;19931;-87
2023/10/17 12:29:05;;;;;;;;;;;;;;;;;;6180506;23;19920;-86
2023/10/17 12:31:32;;;;;;;;;;;;;;;;;;6177466;23;19951;-87
2023/10/17 12:33:58;;;;;;;;;;;;;;;;;;6177085;23;20221;-87
2023/10/17 12:36:24;;;;;;;;;;;;;;;;;;6206230;23;19926;-87
2023/10/17 12:38:50;;;;;;;;;;;;;;;;;;6202693;23;19951;-87
2023/10/17 12:41:16;;;;;;;;;;;;;;;;;;6206218;23;19915;-87
2023/10/17 12:43:42;;;;;;;;;;;;;;;;;;6176122;23;19926;-87
2023/10/17 12:46:10;;;;;;;;;;;;;;;;;;6154629;23;19956;-87
2023/10/17 12:48:36;;;;;;;;;;;;;;;;;;6205304;23;19916;-86
2023/10/17 12:51:11;;;;;;;;;;;;;;;;;;6177391;23;20233;-87
2023/10/17 12:53:37;;;;;;;;;;;;;;;;;;6178789;23;20386;-87
2023/10/17 12:56:05;;;;;;;;;;;;;;;;;;6179727;23;19974;-87
2023/10/17 12:58:32;;;;;;;;;;;;;;;;;;6205705;23;19919;-87
2023/10/17 13:00:58;;;;;;;;;;;;;;;;;;6200531;23;20379;-87
2023/10/17 13:03:25;;;;;;;;;;;;;;;;;;6205844;23;19939;-87
2023/10/17 13:05:51;;;;;;;;;;;;;;;;;;6152101;23;19948;-87
2023/10/17 13:08:17;;;;;;;;;;;;;;;;;;6154918;23;20249;-86
2023/10/17 13:10:43;;;;;;;;;;;;;;;;;;6203811;23;19923;-87
2023/10/17 13:13:10;;;;;;;;;;;;;;;;;;6207147;23;19924;-87
2023/10/17 13:15:36;;;;;;;;;;;;;;;;;;6201408;23;20357;-87
2023/10/17 13:18:05;;;;;;;;;;;;;;;;;;6203752;23;19916;-87
2023/10/17 13:20:32;;;;;;;;;;;;;;;;;;6151869;23;20309;-87
2023/10/17 16:37:34;;;;;;;;;;;;;;;;;;;;;
2023/10/17 16:40:42;;;;;;;;;;;;;;;;;;;;;
2023/10/17 16:49:39;;;;;;;;;;;;;;;;;;6144049;23;19999;-88
2023/10/17 18:22:22;;;;;;;;;;;;;;;;;;6197692;23;19927;-85
2023/10/17 18:25:07;;;;;;;;;;;;;;;;;;6075485;23;19921;-85
2023/10/17 18:27:51;;;;;;;;;;;;;;;;;;6094343;23;20328;-85
2023/10/17 18:30:31;;;;;;;;;;;;;;;;;;6090276;23;19967;-85
2023/10/17 18:39:19;;;;;;;;;;;;;;;;;;6007462;23;20447;-86
2023/10/17 18:41:59;;;;;;;;;;;;;;;;;;6074584;23;20460;-86
2023/10/17 18:44:53;;;;;;;;;;;;;;;;;;;;;
2023/10/17 20:45:45;;;;;;;;;;;;;;;;;;6154687;22;19928;-84
2023/10/17 20:48:30;;;;;;;;;;;;;;;;;;6138118;23;20640;-88
2023/10/17 20:51:27;;;;;;;;;;;;;;;;;;6123595;23;19920;-88
2023/10/17 21:00:03;;;;;;;;;;;;;;;;;;6085853;23;20226;-87
2023/10/17 21:02:38;;;;;;;;;;;;;;;;;;6138484;23;19946;-88
2023/10/17 21:05:19;;;;;;;;;;;;;;;;;;6143063;23;20271;-88
2023/10/17 21:08:01;;;;;;;;;;;;;;;;;;6118204;23;19920;-87
2023/10/17 21:10:32;;;;;;;;;;;;;;;;;;6119207;23;19921;-87
2023/10/17 21:16:16;;;;;;;;;;;;;;;;;;6141387;23;19951;-86
2023/10/17 21:18:50;;;;;;;;;;;;;;;;;;6138135;23;20694;-86
2023/10/17 21:21:25;;;;;;;;;;;;;;;;;;6119323;23;20231;-86
2023/10/17 21:23:54;;;;;;;;;;;;;;;;;;6119134;23;20528;-86
2023/10/17 21:26:25;;;;;;;;;;;;;;;;;;6120053;23;20293;-86
2023/10/17 21:29:22;;;;;;;;;;;;;;;;;;6147955;23;19931;-86
2023/10/17 21:31:54;;;;;;;;;;;;;;;;;;6120213;23;20663;-86
2023/10/17 21:34:20;;;;;;;;;;;;;;;;;;6121243;23;19920;-86
2023/10/17 21:36:55;;;;;;;;;;;;;;;;;;6118544;23;19923;-86
2023/10/17 21:48:04;;;;;;;;;;;;;;;;;;6148589;23;20273;-85
2023/10/17 21:50:30;;;;;;;;;;;;;;;;;;6175372;23;19955;-85
2023/10/17 21:52:56;;;;;;;;;;;;;;;;;;6151620;23;19927;-85
2023/10/17 21:55:22;;;;;;;;;;;;;;;;;;6177179;23;20292;-86
2023/10/17 21:57:48;;;;;;;;;;;;;;;;;;6171660;23;20257;-86
2023/10/17 22:03:01;;;;;;;;;;;;;;;;;;6174238;23;19928;-86
2023/10/17 22:05:27;;;;;;;;;;;;;;;;;;6177971;23;19920;-86
2023/10/17 22:07:54;;;;;;;;;;;;;;;;;;6151509;23;20337;-86
2023/10/17 22:10:20;;;;;;;;;;;;;;;;;;6177177;23;19930;-86
2023/10/17 22:12:49;;;;;;;;;;;;;;;;;;6176047;23;19916;-86
2023/10/17 22:15:17;;;;;;;;;;;;;;;;;;6154207;23;19962;-86
2023/10/17 22:17:43;;;;;;;;;;;;;;;;;;6175431;23;19966;-86
2023/10/17 22:20:16;;;;;;;;;;;;;;;;;;6178263;23;19920;-86
2023/10/17 22:22:50;;;;;;;;;;;;;;;;;;6151451;23;19999;-86
2023/10/17 22:25:18;;;;;;;;;;;;;;;;;;6153046;23;19920;-86
2023/10/17 22:27:51;;;;;;;;;;;;;;;;;;6149888;23;19923;-86
2023/10/17 22:30:17;;;;;;;;;;;;;;;;;;6175923;23;19958;-86
2023/10/17 22:32:43;;;;;;;;;;;;;;;;;;6150540;23;19920;-86
2023/10/17 22:35:09;;;;;;;;;;;;;;;;;;6152133;23;19924;-85
2023/10/17 22:37:38;;;;;;;;;;;;;;;;;;6178097;23;19924;-86
2023/10/17 22:40:05;;;;;;;;;;;;;;;;;;6177434;23;19974;-86
2023/10/17 22:42:32;;;;;;;;;;;;;;;;;;6176991;23;19919;-86
2023/10/17 22:45:17;;;;;;;;;;;;;;;;;;6176250;23;20476;-86
2023/10/17 22:47:43;;;;;;;;;;;;;;;;;;6152252;23;19955;-85
2023/10/17 22:53:00;;;;;;;;;;;;;;;;;;6174473;23;19928;-86
2023/10/17 22:55:26;;;;;;;;;;;;;;;;;;6178416;23;19934;-86
2023/10/17 22:57:52;;;;;;;;;;;;;;;;;;6175532;23;19949;-86
2023/10/17 23:00:20;;;;;;;;;;;;;;;;;;6153073;23;19933;-86
2023/10/17 23:02:48;;;;;;;;;;;;;;;;;;6150844;23;19926;-86
2023/10/17 23:05:14;;;;;;;;;;;;;;;;;;6152740;23;19920;-86
2023/10/17 23:07:40;;;;;;;;;;;;;;;;;;6148518;23;19969;-86
2023/10/17 23:10:12;;;;;;;;;;;;;;;;;;6153820;23;19927;-87
2023/10/17 23:12:40;;;;;;;;;;;;;;;;;;6174802;23;20058;-87
2023/10/17 23:15:10;;;;;;;;;;;;;;;;;;6153616;23;19920;-87
2023/10/17 23:17:39;;;;;;;;;;;;;;;;;;6151780;23;20241;-87
2023/10/17 23:20:12;;;;;;;;;;;;;;;;;;6175719;23;19919;-86
2023/10/17 23:22:38;;;;;;;;;;;;;;;;;;6175621;23;20198;-87
2023/10/17 23:25:13;;;;;;;;;;;;;;;;;;6176244;23;19930;-86
2023/10/17 23:27:39;;;;;;;;;;;;;;;;;;6150793;23;20317;-86
2023/10/17 23:30:05;;;;;;;;;;;;;;;;;;6177740;23;19939;-86
2023/10/17 23:32:34;;;;;;;;;;;;;;;;;;6176976;23;19986;-86
2023/10/17 23:35:07;;;;;;;;;;;;;;;;;;6151751;23;20051;-87
2023/10/17 23:37:33;;;;;;;;;;;;;;;;;;6149541;23;19924;-87
2023/10/17 23:40:00;;;;;;;;;;;;;;;;;;6149121;23;20347;-86
2023/10/17 23:42:29;;;;;;;;;;;;;;;;;;6176322;23;19930;-86
2023/10/17 23:44:58;;;;;;;;;;;;;;;;;;6175012;23;19920;-86
2023/10/17 23:47:24;;;;;;;;;;;;;;;;;;6203183;23;19927;-86
2023/10/17 23:49:50;;;;;;;;;;;;;;;;;;6174703;23;19928;-86
2023/10/17 23:52:17;;;;;;;;;;;;;;;;;;6151703;23;19920;-86
2023/10/17 23:54:43;;;;;;;;;;;;;;;;;;6175183;23;19919;-86
2023/10/17 23:57:09;;;;;;;;;;;;;;;;;;6151673;23;20259;-86
2023/10/17 23:59:37;;;;;;;;;;;;;;;;;;6152917;23;20329;-86
